createdAt,value
2023-02-17T00:00:28.747Z,15
2023-02-17T00:01:28.726Z,13
2023-02-17T00:02:28.753Z,14
2023-02-17T00:03:28.798Z,14
2023-02-17T00:04:28.727Z,14
2023-02-17T00:05:28.721Z,13
2023-02-17T00:06:28.745Z,14
2023-02-17T00:07:28.720Z,15
2023-02-17T00:08:28.725Z,13
2023-02-17T00:09:28.756Z,13
2023-02-17T00:10:28.722Z,14
2023-02-17T00:11:28.782Z,14
2023-02-17T00:13:28.736Z,14
2023-02-17T00:14:28.728Z,14
2023-02-17T00:15:28.728Z,14
2023-02-17T00:16:28.745Z,12
2023-02-17T00:17:28.728Z,15
2023-02-17T00:18:28.747Z,13
2023-02-17T00:19:28.726Z,14
2023-02-17T00:20:28.714Z,14
2023-02-17T00:21:28.717Z,12
2023-02-17T00:22:28.720Z,13
2023-02-17T00:23:28.734Z,13
2023-02-17T00:24:28.729Z,13
2023-02-17T00:25:28.718Z,13
2023-02-17T00:26:28.723Z,13
2023-02-17T00:27:28.716Z,13
2023-02-17T00:28:28.784Z,13
2023-02-17T00:29:28.722Z,12
2023-02-17T00:30:28.854Z,12
2023-02-17T00:32:28.726Z,13
2023-02-17T00:33:28.794Z,12
2023-02-17T00:34:28.726Z,12
2023-02-17T00:35:28.731Z,13
2023-02-17T00:36:28.749Z,12
2023-02-17T00:37:28.738Z,12
2023-02-17T00:38:28.733Z,13
2023-02-17T00:39:28.731Z,11
2023-02-17T00:40:28.757Z,12
2023-02-17T00:41:28.732Z,12
2023-02-17T00:42:28.743Z,12
2023-02-17T00:43:28.728Z,11
2023-02-17T00:44:28.742Z,12
2023-02-17T00:45:28.734Z,11
2023-02-17T00:46:28.814Z,11
2023-02-17T00:47:28.739Z,12
2023-02-17T00:48:28.825Z,10
2023-02-17T00:49:28.732Z,11
2023-02-17T00:50:28.730Z,11
2023-02-17T00:51:28.731Z,11
2023-02-17T00:52:28.725Z,11
2023-02-17T00:53:28.727Z,11
2023-02-17T00:54:28.727Z,10
2023-02-17T00:55:28.759Z,11
2023-02-17T00:56:28.725Z,10
2023-02-17T00:57:28.728Z,11
2023-02-17T00:58:28.725Z,10
2023-02-17T00:59:28.732Z,12
2023-02-17T01:00:28.752Z,10
2023-02-17T01:01:30.846Z,10
2023-02-17T01:02:28.735Z,11
2023-02-17T01:03:28.745Z,10
2023-02-17T01:05:28.730Z,11
2023-02-17T01:06:28.722Z,11
2023-02-17T01:07:28.713Z,10
2023-02-17T01:08:28.781Z,9
2023-02-17T01:09:28.721Z,11
2023-02-17T01:10:28.735Z,12
2023-02-17T01:11:28.762Z,10
2023-02-17T01:12:28.728Z,10
2023-02-17T01:13:28.716Z,11
2023-02-17T01:14:28.722Z,10
2023-02-17T01:15:28.723Z,11
2023-02-17T01:16:28.792Z,10
2023-02-17T01:17:28.719Z,10
2023-02-17T01:18:28.752Z,10
2023-02-17T01:19:28.728Z,10
2023-02-17T01:20:28.728Z,10
2023-02-17T01:21:28.758Z,11
2023-02-17T01:22:28.727Z,12
2023-02-17T01:23:28.731Z,10
2023-02-17T01:24:28.740Z,10
2023-02-17T01:26:28.721Z,11
2023-02-17T01:27:28.733Z,11
2023-02-17T01:28:28.722Z,10
2023-02-17T01:29:28.730Z,10
2023-02-17T01:30:28.762Z,11
2023-02-17T01:31:28.840Z,11
2023-02-17T01:32:28.731Z,11
2023-02-17T01:33:28.748Z,10
2023-02-17T01:34:28.743Z,10
2023-02-17T01:35:28.732Z,10
2023-02-17T01:36:28.725Z,10
2023-02-17T01:37:28.724Z,10
2023-02-17T01:38:28.730Z,10
2023-02-17T01:39:28.736Z,11
2023-02-17T01:40:28.880Z,10
2023-02-17T01:41:28.742Z,11
2023-02-17T01:42:28.751Z,10
2023-02-17T01:43:28.715Z,10
2023-02-17T01:44:28.715Z,11
2023-02-17T01:45:28.789Z,12
2023-02-17T01:47:28.714Z,11
2023-02-17T01:48:28.742Z,11
2023-02-17T01:49:28.732Z,11
2023-02-17T01:50:28.728Z,11
2023-02-17T01:51:28.747Z,12
2023-02-17T01:52:28.714Z,12
2023-02-17T01:53:28.722Z,12
2023-02-17T01:54:28.716Z,11
2023-02-17T01:55:28.724Z,11
2023-02-17T01:56:28.710Z,11
2023-02-17T01:57:28.718Z,12
2023-02-17T01:58:28.722Z,12
2023-02-17T01:59:28.719Z,11
2023-02-17T02:00:28.718Z,12
2023-02-17T02:01:28.723Z,11
2023-02-17T02:02:28.882Z,12
2023-02-17T02:03:28.717Z,11
2023-02-17T02:04:28.733Z,10
2023-02-17T02:05:28.731Z,11
2023-02-17T02:06:28.710Z,10
2023-02-17T02:07:28.729Z,11
2023-02-17T02:08:28.716Z,11
2023-02-17T02:09:28.742Z,11
2023-02-17T02:10:28.708Z,12
2023-02-17T02:11:28.713Z,12
2023-02-17T02:12:28.723Z,11
2023-02-17T02:13:28.741Z,11
2023-02-17T02:14:28.733Z,12
2023-02-17T02:15:28.797Z,11
2023-02-17T02:17:28.737Z,10
2023-02-17T02:18:28.717Z,12
2023-02-17T02:19:28.718Z,11
2023-02-17T02:20:28.789Z,12
2023-02-17T02:21:28.719Z,11
2023-02-17T02:22:28.728Z,11
2023-02-17T02:23:28.726Z,12
2023-02-17T02:24:28.735Z,12
2023-02-17T02:25:28.721Z,12
2023-02-17T02:26:28.714Z,11
2023-02-17T02:27:28.713Z,11
2023-02-17T02:28:28.718Z,11
2023-02-17T02:29:28.709Z,12
2023-02-17T02:30:28.821Z,11
2023-02-17T02:31:28.751Z,11
2023-02-17T02:32:28.726Z,10
2023-02-17T02:33:28.715Z,11
2023-02-17T02:34:28.708Z,11
2023-02-17T02:35:28.723Z,12
2023-02-17T02:36:28.719Z,11
2023-02-17T02:37:28.732Z,11
2023-02-17T02:38:28.722Z,12
2023-02-17T02:39:28.773Z,10
2023-02-17T02:40:28.718Z,11
2023-02-17T02:41:28.710Z,12
2023-02-17T02:42:28.719Z,13
2023-02-17T02:43:28.732Z,11
2023-02-17T02:44:28.763Z,11
2023-02-17T02:45:28.807Z,12
2023-02-17T02:46:28.886Z,11
2023-02-17T02:47:28.743Z,11
2023-02-17T02:48:28.727Z,10
2023-02-17T02:49:28.712Z,11
2023-02-17T02:50:28.721Z,10
2023-02-17T02:51:28.711Z,11
2023-02-17T02:52:28.737Z,11
2023-02-17T02:53:28.722Z,10
2023-02-17T02:54:28.722Z,10
2023-02-17T02:55:28.713Z,10
2023-02-17T02:56:28.711Z,10
2023-02-17T02:57:28.717Z,10
2023-02-17T02:58:28.719Z,10
2023-02-17T02:59:28.723Z,10
2023-02-17T03:00:28.725Z,10
2023-02-17T03:01:28.724Z,10
2023-02-17T03:02:28.717Z,10
2023-02-17T03:03:28.719Z,10
2023-02-17T03:04:28.718Z,10
2023-02-17T03:05:28.719Z,9
2023-02-17T03:06:28.710Z,9
2023-02-17T03:07:28.712Z,10
2023-02-17T03:08:28.706Z,9
2023-02-17T03:09:28.717Z,10
2023-02-17T03:10:28.727Z,10
2023-02-17T03:11:28.709Z,10
2023-02-17T03:12:28.716Z,10
2023-02-17T03:13:28.714Z,10
2023-02-17T03:14:28.715Z,11
2023-02-17T03:15:28.765Z,10
2023-02-17T03:16:28.756Z,9
2023-02-17T03:17:28.732Z,9
2023-02-17T03:18:28.735Z,10
2023-02-17T03:19:28.712Z,9
2023-02-17T03:20:28.717Z,10
2023-02-17T03:21:28.707Z,10
2023-02-17T03:22:28.719Z,10
2023-02-17T03:23:28.713Z,9
2023-02-17T03:24:28.726Z,10
2023-02-17T03:25:28.717Z,9
2023-02-17T03:26:28.736Z,10
2023-02-17T03:27:28.730Z,9
2023-02-17T03:28:28.719Z,9
2023-02-17T03:29:28.708Z,9
2023-02-17T03:30:28.746Z,8
2023-02-17T03:31:30.784Z,9
2023-02-17T03:32:28.722Z,10
2023-02-17T03:33:28.730Z,9
2023-02-17T03:34:28.710Z,9
2023-02-17T03:35:28.707Z,10
2023-02-17T03:36:28.709Z,10
2023-02-17T03:37:28.724Z,10
2023-02-17T03:38:28.720Z,10
2023-02-17T03:39:28.738Z,9
2023-02-17T03:40:28.727Z,9
2023-02-17T03:41:28.714Z,9
2023-02-17T03:42:28.767Z,10
2023-02-17T03:43:28.713Z,9
2023-02-17T03:44:28.733Z,9
2023-02-17T03:45:28.711Z,9
2023-02-17T03:46:28.728Z,10
2023-02-17T03:47:28.708Z,9
2023-02-17T03:48:28.708Z,10
2023-02-17T03:49:28.709Z,9
2023-02-17T03:50:28.735Z,9
2023-02-17T03:51:28.773Z,9
2023-02-17T03:52:28.717Z,9
2023-02-17T03:53:28.717Z,9
2023-02-17T03:54:28.705Z,9
2023-02-17T03:55:28.706Z,11
2023-02-17T03:56:28.715Z,10
2023-02-17T03:57:28.727Z,9
2023-02-17T03:58:28.713Z,9
2023-02-17T03:59:28.712Z,8
2023-02-17T04:00:28.719Z,9
2023-02-17T04:02:28.706Z,9
2023-02-17T04:03:28.702Z,9
2023-02-17T04:04:28.727Z,9
2023-02-17T04:05:28.706Z,9
2023-02-17T04:06:28.702Z,10
2023-02-17T04:07:28.706Z,9
2023-02-17T04:08:28.701Z,9
2023-02-17T04:09:28.722Z,8
2023-02-17T04:10:28.713Z,9
2023-02-17T04:11:28.731Z,8
2023-02-17T04:12:28.703Z,8
2023-02-17T04:13:28.719Z,9
2023-02-17T04:14:28.711Z,8
2023-02-17T04:15:28.748Z,8
2023-02-17T04:16:28.723Z,9
2023-02-17T04:17:28.731Z,9
2023-02-17T04:18:28.709Z,8
2023-02-17T04:19:28.711Z,9
2023-02-17T04:20:28.703Z,9
2023-02-17T04:21:28.714Z,8
2023-02-17T04:23:28.731Z,8
2023-02-17T04:24:28.713Z,8
2023-02-17T04:25:28.712Z,8
2023-02-17T04:26:28.700Z,8
2023-02-17T04:27:28.734Z,9
2023-02-17T04:28:28.712Z,9
2023-02-17T04:29:28.709Z,8
2023-02-17T04:30:28.742Z,8
2023-02-17T04:31:28.805Z,8
2023-02-17T04:32:28.704Z,8
2023-02-17T04:33:28.708Z,9
2023-02-17T04:34:28.708Z,9
2023-02-17T04:35:28.709Z,8
2023-02-17T04:36:28.705Z,8
2023-02-17T04:37:28.721Z,8
2023-02-17T04:38:28.732Z,7
2023-02-17T04:39:28.718Z,8
2023-02-17T04:40:28.712Z,8
2023-02-17T04:41:28.702Z,8
2023-02-17T04:42:28.720Z,8
2023-02-17T04:44:28.699Z,7
2023-02-17T04:45:28.700Z,8
2023-02-17T04:46:28.754Z,7
2023-02-17T04:47:28.705Z,8
2023-02-17T04:48:28.727Z,8
2023-02-17T04:49:28.702Z,8
2023-02-17T04:50:28.705Z,8
2023-02-17T04:51:28.704Z,8
2023-02-17T04:52:28.716Z,8
2023-02-17T04:53:28.737Z,7
2023-02-17T04:54:28.702Z,7
2023-02-17T04:55:28.717Z,8
2023-02-17T04:56:28.710Z,7
2023-02-17T04:57:28.716Z,7
2023-02-17T04:58:28.826Z,7
2023-02-17T04:59:28.706Z,7
2023-02-17T05:00:28.703Z,7
2023-02-17T05:01:28.791Z,7
2023-02-17T05:02:28.708Z,7
2023-02-17T05:03:28.787Z,8
2023-02-17T05:04:28.728Z,7
2023-02-17T05:05:28.709Z,7
2023-02-17T05:06:28.702Z,7
2023-02-17T05:07:28.744Z,7
2023-02-17T05:08:28.764Z,7
2023-02-17T05:09:28.700Z,8
2023-02-17T05:10:28.705Z,7
2023-02-17T05:11:28.721Z,7
2023-02-17T05:12:28.698Z,7
2023-02-17T05:13:28.707Z,7
2023-02-17T05:14:28.701Z,7
2023-02-17T05:15:28.689Z,7
2023-02-17T05:16:28.704Z,7
2023-02-17T05:17:28.712Z,7
2023-02-17T05:18:28.708Z,7
2023-02-17T05:19:28.725Z,7
2023-02-17T05:20:28.718Z,7
2023-02-17T05:21:28.697Z,6
2023-02-17T05:22:28.702Z,6
2023-02-17T05:23:28.764Z,6
2023-02-17T05:24:28.697Z,7
2023-02-17T05:25:28.704Z,7
2023-02-17T05:26:28.702Z,6
2023-02-17T05:27:28.706Z,6
2023-02-17T05:28:28.765Z,6
2023-02-17T05:29:28.704Z,7
2023-02-17T05:30:28.775Z,7
2023-02-17T05:31:28.812Z,7
2023-02-17T05:32:28.714Z,6
2023-02-17T05:33:28.697Z,7
2023-02-17T05:34:28.729Z,6
2023-02-17T05:35:28.700Z,6
2023-02-17T05:36:28.695Z,6
2023-02-17T05:37:28.711Z,6
2023-02-17T05:38:28.711Z,6
2023-02-17T05:39:28.694Z,6
2023-02-17T05:40:28.747Z,6
2023-02-17T05:41:28.747Z,6
2023-02-17T05:42:28.725Z,6
2023-02-17T05:43:28.693Z,6
2023-02-17T05:44:28.843Z,6
2023-02-17T05:45:28.771Z,7
2023-02-17T05:46:28.727Z,6
2023-02-17T05:47:28.698Z,6
2023-02-17T05:48:28.708Z,6
2023-02-17T05:49:28.706Z,5
2023-02-17T05:50:28.765Z,6
2023-02-17T05:51:28.725Z,6
2023-02-17T05:52:28.713Z,6
2023-02-17T05:53:28.696Z,6
2023-02-17T05:54:28.698Z,5
2023-02-17T05:55:28.699Z,6
2023-02-17T05:56:28.704Z,5
2023-02-17T05:57:28.705Z,5
2023-02-17T05:58:28.698Z,5
2023-02-17T05:59:28.692Z,6
2023-02-17T06:00:28.710Z,5
2023-02-17T06:01:28.703Z,6
2023-02-17T06:02:28.695Z,5
2023-02-17T06:03:28.701Z,6
2023-02-17T06:04:28.709Z,5
2023-02-17T06:05:28.729Z,5
2023-02-17T06:06:28.706Z,5
2023-02-17T06:07:28.702Z,5
2023-02-17T06:08:29.009Z,4
2023-02-17T06:09:28.705Z,5
2023-02-17T06:10:28.712Z,5
2023-02-17T06:12:28.705Z,5
2023-02-17T06:13:28.701Z,5
2023-02-17T06:14:28.700Z,5
2023-02-17T06:15:28.704Z,4
2023-02-17T06:16:28.820Z,5
2023-02-17T06:17:28.704Z,5
2023-02-17T06:19:28.732Z,5
2023-02-17T06:20:28.720Z,5
2023-02-17T06:21:28.734Z,5
2023-02-17T06:22:28.704Z,5
2023-02-17T06:23:28.702Z,6
2023-02-17T06:24:28.720Z,6
2023-02-17T06:25:28.712Z,5
2023-02-17T06:26:28.725Z,5
2023-02-17T06:27:28.700Z,5
2023-02-17T06:28:28.702Z,5
2023-02-17T06:29:28.723Z,6
2023-02-17T06:30:28.778Z,6
2023-02-17T06:31:28.797Z,6
2023-02-17T06:32:28.695Z,5
2023-02-17T06:33:30.628Z,5
2023-02-17T06:34:28.703Z,5
2023-02-17T06:35:28.722Z,5
2023-02-17T06:36:28.690Z,6
2023-02-17T06:37:28.693Z,5
2023-02-17T06:38:28.750Z,5
2023-02-17T06:40:28.911Z,4
2023-02-17T06:41:28.728Z,5
2023-02-17T06:42:28.711Z,5
2023-02-17T06:43:28.702Z,5
2023-02-17T06:44:28.692Z,5
2023-02-17T06:45:28.721Z,5
2023-02-17T06:46:28.697Z,5
2023-02-17T06:47:28.775Z,5
2023-02-17T06:48:28.696Z,6
2023-02-17T06:49:28.710Z,7
2023-02-17T06:50:28.692Z,6
2023-02-17T06:51:28.704Z,5
2023-02-17T06:52:28.799Z,6
2023-02-17T06:53:28.695Z,6
2023-02-17T06:54:28.710Z,6
2023-02-17T06:55:28.712Z,6
2023-02-17T06:56:28.708Z,7
2023-02-17T06:57:28.702Z,7
2023-02-17T06:58:28.696Z,6
2023-02-17T06:59:28.713Z,7
2023-02-17T07:01:28.690Z,8
2023-02-17T07:02:28.892Z,8
2023-02-17T07:03:28.690Z,8
2023-02-17T07:04:28.709Z,8
2023-02-17T07:05:28.696Z,9
2023-02-17T07:06:28.707Z,8
2023-02-17T07:07:28.696Z,8
2023-02-17T07:08:28.696Z,8
2023-02-17T07:09:28.700Z,8
2023-02-17T07:10:28.696Z,8
2023-02-17T07:11:28.710Z,7
2023-02-17T07:12:28.773Z,8
2023-02-17T07:13:28.700Z,8
2023-02-17T07:14:28.718Z,9
2023-02-17T07:15:28.699Z,8
2023-02-17T07:16:28.722Z,8
2023-02-17T07:17:28.773Z,9
2023-02-17T07:18:28.705Z,8
2023-02-17T07:19:28.714Z,9
2023-02-17T07:20:28.716Z,8
2023-02-17T07:21:28.710Z,8
2023-02-17T07:22:28.706Z,8
2023-02-17T07:23:28.745Z,8
2023-02-17T07:24:28.705Z,9
2023-02-17T07:25:28.710Z,9
2023-02-17T07:26:28.709Z,8
2023-02-17T07:27:28.765Z,8
2023-02-17T07:28:28.701Z,8
2023-02-17T07:29:28.712Z,8
2023-02-17T07:30:28.755Z,8
2023-02-17T07:31:28.800Z,7
2023-02-17T07:32:28.764Z,8
2023-02-17T07:34:28.755Z,7
2023-02-17T07:35:28.702Z,9
2023-02-17T07:36:28.699Z,7
2023-02-17T07:37:28.700Z,8
2023-02-17T07:38:28.704Z,9
2023-02-17T07:39:28.754Z,9
2023-02-17T07:40:28.781Z,8
2023-02-17T07:41:28.717Z,8
2023-02-17T07:42:28.847Z,7
2023-02-17T07:43:28.691Z,9
2023-02-17T07:44:28.698Z,8
2023-02-17T07:45:28.797Z,8
2023-02-17T07:46:28.688Z,8
2023-02-17T07:47:28.689Z,8
2023-02-17T07:48:28.694Z,8
2023-02-17T07:49:28.696Z,7
2023-02-17T07:50:28.752Z,7
2023-02-17T07:51:28.712Z,9
2023-02-17T07:52:28.694Z,7
2023-02-17T07:53:28.691Z,8
2023-02-17T07:54:28.725Z,7
2023-02-17T07:55:28.705Z,8
2023-02-17T07:56:28.682Z,8
2023-02-17T07:57:28.688Z,7
2023-02-17T07:58:28.703Z,7
2023-02-17T07:59:28.697Z,7
2023-02-17T08:00:28.742Z,7
2023-02-17T08:01:28.693Z,7
2023-02-17T08:02:28.710Z,8
2023-02-17T08:03:28.699Z,8
2023-02-17T08:04:28.763Z,7
2023-02-17T08:05:28.707Z,8
2023-02-17T08:06:28.693Z,8
2023-02-17T08:07:28.689Z,7
2023-02-17T08:08:28.689Z,8
2023-02-17T08:09:28.682Z,8
2023-02-17T08:10:28.685Z,7
2023-02-17T08:11:28.700Z,7
2023-02-17T08:12:28.686Z,7
2023-02-17T08:13:28.694Z,7
2023-02-17T08:14:28.705Z,8
2023-02-17T08:15:28.687Z,7
2023-02-17T08:16:28.765Z,8
2023-02-17T08:17:28.694Z,7
2023-02-17T08:18:30.605Z,8
2023-02-17T08:19:42.796Z,7
2023-02-17T08:20:28.692Z,7
2023-02-17T08:21:28.692Z,6
2023-02-17T08:22:28.687Z,8
2023-02-17T08:23:28.718Z,7
2023-02-17T08:24:28.725Z,8
2023-02-17T08:25:28.710Z,7
2023-02-17T08:26:28.717Z,8
2023-02-17T08:27:28.723Z,7
2023-02-17T08:28:28.687Z,7
2023-02-17T08:29:28.695Z,6
2023-02-17T08:30:28.815Z,7
2023-02-17T08:31:28.827Z,7
2023-02-17T08:32:28.703Z,7
2023-02-17T08:34:28.752Z,5
2023-02-17T08:35:28.689Z,7
2023-02-17T08:36:28.782Z,6
2023-02-17T08:37:28.690Z,6
2023-02-17T08:38:28.716Z,6
2023-02-17T08:39:28.716Z,6
2023-02-17T08:40:28.695Z,7
2023-02-17T08:41:28.711Z,6
2023-02-17T08:42:28.743Z,7
2023-02-17T08:43:28.708Z,6
2023-02-17T08:44:28.711Z,6
2023-02-17T08:45:28.740Z,6
2023-02-17T08:46:28.734Z,7
2023-02-17T08:47:28.738Z,6
2023-02-17T08:48:28.685Z,6
2023-02-17T08:49:28.696Z,5
2023-02-17T08:50:28.684Z,6
2023-02-17T08:51:28.762Z,5
2023-02-17T08:52:28.713Z,6
2023-02-17T08:53:28.749Z,6
2023-02-17T08:54:28.716Z,6
2023-02-17T08:55:33.458Z,6
2023-02-17T08:56:28.732Z,6
2023-02-17T08:57:28.687Z,6
2023-02-17T08:58:28.685Z,6
2023-02-17T08:59:28.747Z,6
2023-02-17T09:00:28.714Z,6
2023-02-17T09:01:28.804Z,6
2023-02-17T09:02:28.691Z,6
2023-02-17T09:03:28.687Z,6
2023-02-17T09:04:28.719Z,6
2023-02-17T09:05:28.754Z,6
2023-02-17T09:06:28.687Z,6
2023-02-17T09:07:28.742Z,5
2023-02-17T09:08:28.682Z,6
2023-02-17T09:09:28.771Z,5
2023-02-17T09:10:28.699Z,6
2023-02-17T09:11:28.777Z,6
2023-02-17T09:12:28.713Z,5
2023-02-17T09:13:28.722Z,6
2023-02-17T09:14:28.714Z,6
2023-02-17T09:16:28.820Z,5
2023-02-17T09:17:28.698Z,5
2023-02-17T09:18:28.700Z,6
2023-02-17T09:19:28.754Z,5
2023-02-17T09:20:28.755Z,6
2023-02-17T09:21:28.697Z,6
2023-02-17T09:22:32.589Z,5
2023-02-17T09:23:28.715Z,4
2023-02-17T09:24:28.692Z,6
2023-02-17T09:25:28.713Z,5
2023-02-17T09:26:28.742Z,5
2023-02-17T09:27:28.742Z,5
2023-02-17T09:28:28.864Z,6
2023-02-17T09:29:28.740Z,6
2023-02-17T09:30:28.808Z,5
2023-02-17T09:31:28.866Z,6
2023-02-17T09:32:28.821Z,4
2023-02-17T09:33:28.692Z,5
2023-02-17T09:34:28.704Z,5
2023-02-17T09:37:28.711Z,5
2023-02-17T09:38:28.706Z,5
2023-02-17T09:39:28.695Z,4
2023-02-17T09:40:28.719Z,5
2023-02-17T09:41:28.830Z,5
2023-02-17T09:42:28.715Z,4
2023-02-17T09:43:28.721Z,4
2023-02-17T09:44:28.762Z,4
2023-02-17T09:45:28.699Z,5
2023-02-17T09:46:28.817Z,5
2023-02-17T09:47:28.769Z,5
2023-02-17T09:48:28.826Z,4
2023-02-17T09:49:28.729Z,4
2023-02-17T09:50:28.731Z,4
2023-02-17T09:51:28.707Z,4
2023-02-17T09:52:28.787Z,4
2023-02-17T09:53:28.745Z,5
2023-02-17T09:54:28.822Z,4
2023-02-17T09:55:28.710Z,4
2023-02-17T09:57:28.713Z,5
2023-02-17T09:58:28.712Z,4
2023-02-17T09:59:28.684Z,4
2023-02-17T10:00:28.707Z,4
2023-02-17T10:01:28.740Z,4
2023-02-17T10:02:28.689Z,4
2023-02-17T10:03:28.770Z,4
2023-02-17T10:04:28.822Z,4
2023-02-17T10:05:28.773Z,4
2023-02-17T10:06:28.711Z,4
2023-02-17T10:07:28.732Z,4
2023-02-17T10:08:28.689Z,5
2023-02-17T10:09:28.708Z,4
2023-02-17T10:10:28.713Z,5
2023-02-17T10:11:28.699Z,5
2023-02-17T10:12:28.697Z,4
2023-02-17T10:13:28.692Z,4
2023-02-17T10:14:28.715Z,3
2023-02-17T10:15:28.728Z,4
2023-02-17T10:16:28.802Z,3
2023-02-17T10:17:28.792Z,4
2023-02-17T10:18:28.689Z,4
2023-02-17T10:19:28.696Z,4
2023-02-17T10:20:28.799Z,4
2023-02-17T10:21:28.754Z,4
2023-02-17T10:22:28.729Z,4
2023-02-17T10:23:28.753Z,4
2023-02-17T10:24:28.705Z,4
2023-02-17T10:25:28.714Z,4
2023-02-17T10:26:28.705Z,4
2023-02-17T10:27:28.739Z,5
2023-02-17T10:28:28.749Z,4
2023-02-17T10:29:28.750Z,5
2023-02-17T10:30:28.716Z,4
2023-02-17T10:31:28.766Z,5
2023-02-17T10:32:28.908Z,4
2023-02-17T10:33:28.703Z,4
2023-02-17T10:34:28.691Z,4
2023-02-17T10:35:28.699Z,4
2023-02-17T10:36:28.881Z,4
2023-02-17T10:37:28.691Z,4
2023-02-17T10:38:28.773Z,5
2023-02-17T10:39:28.705Z,4
2023-02-17T10:40:28.690Z,4
2023-02-17T10:41:28.699Z,4
2023-02-17T10:42:28.685Z,4
2023-02-17T10:43:28.694Z,4
2023-02-17T10:44:28.753Z,4
2023-02-17T10:45:28.693Z,4
2023-02-17T10:46:28.813Z,4
2023-02-17T10:47:28.683Z,4
2023-02-17T10:48:28.692Z,4
2023-02-17T10:49:28.710Z,3
2023-02-17T10:50:28.685Z,4
2023-02-17T10:51:28.702Z,3
2023-02-17T10:52:28.691Z,3
2023-02-17T10:53:28.695Z,4
2023-02-17T10:54:28.697Z,4
2023-02-17T10:55:28.694Z,4
2023-02-17T10:56:28.682Z,4
2023-02-17T10:57:28.690Z,3
2023-02-17T10:58:28.693Z,3
2023-02-17T10:59:28.689Z,4
2023-02-17T11:00:28.748Z,4
2023-02-17T11:01:28.709Z,3
2023-02-17T11:02:28.696Z,3
2023-02-17T11:03:28.759Z,3
2023-02-17T11:04:28.716Z,3
2023-02-17T11:05:28.710Z,4
2023-02-17T11:06:28.689Z,4
2023-02-17T11:07:28.691Z,4
2023-02-17T11:08:28.720Z,4
2023-02-17T11:09:28.804Z,4
2023-02-17T11:10:28.687Z,4
2023-02-17T11:11:28.703Z,4
2023-02-17T11:12:28.706Z,5
2023-02-17T11:13:28.683Z,4
2023-02-17T11:14:28.693Z,4
2023-02-17T11:15:28.698Z,4
2023-02-17T11:16:28.828Z,4
2023-02-17T11:17:28.702Z,3
2023-02-17T11:18:28.697Z,3
2023-02-17T11:19:28.740Z,4
2023-02-17T11:20:28.691Z,4
2023-02-17T11:21:28.739Z,3
2023-02-17T11:22:28.698Z,4
2023-02-17T11:23:28.694Z,3
2023-02-17T11:24:28.686Z,3
2023-02-17T11:25:28.701Z,3
2023-02-17T11:26:28.703Z,3
2023-02-17T11:27:28.707Z,4
2023-02-17T11:28:28.704Z,4
2023-02-17T11:29:28.687Z,4
2023-02-17T11:30:28.794Z,3
2023-02-17T11:31:28.844Z,4
2023-02-17T11:33:28.689Z,3
2023-02-17T11:34:28.692Z,4
2023-02-17T11:35:28.707Z,4
2023-02-17T11:36:28.690Z,4
2023-02-17T11:37:28.696Z,3
2023-02-17T11:39:28.706Z,3
2023-02-17T11:40:28.798Z,4
2023-02-17T11:42:28.687Z,4
2023-02-17T11:43:28.694Z,3
2023-02-17T11:44:28.689Z,4
2023-02-17T11:45:28.767Z,3
2023-02-17T11:46:28.693Z,3
2023-02-17T11:47:28.745Z,3
2023-02-17T11:48:28.704Z,3
2023-02-17T11:49:28.711Z,3
2023-02-17T11:50:40.441Z,3
2023-02-17T11:51:28.689Z,4
2023-02-17T11:52:28.798Z,3
2023-02-17T11:54:28.694Z,3
2023-02-17T11:55:28.743Z,4
2023-02-17T11:56:28.688Z,4
2023-02-17T11:57:28.692Z,4
2023-02-17T11:58:28.693Z,4
2023-02-17T11:59:28.704Z,4
2023-02-17T12:00:28.762Z,3
2023-02-17T12:01:28.689Z,4
2023-02-17T12:02:28.721Z,3
2023-02-17T12:03:28.831Z,4
2023-02-17T12:04:28.709Z,3
2023-02-17T12:05:28.764Z,3
2023-02-17T12:06:28.695Z,3
2023-02-17T12:07:28.703Z,3
2023-02-17T12:08:28.703Z,3
2023-02-17T12:09:29.272Z,3
2023-02-17T12:10:28.756Z,3
2023-02-17T12:11:28.685Z,3
2023-02-17T12:12:28.693Z,3
2023-02-17T12:13:28.697Z,4
2023-02-17T12:14:30.981Z,3
2023-02-17T12:15:28.692Z,3
2023-02-17T12:16:28.756Z,3
2023-02-17T12:17:28.696Z,3
2023-02-17T12:18:28.713Z,3
2023-02-17T12:19:28.691Z,3
2023-02-17T12:20:28.687Z,2
2023-02-17T12:21:28.842Z,3
2023-02-17T12:22:28.683Z,3
2023-02-17T12:23:28.715Z,3
2023-02-17T12:24:28.693Z,4
2023-02-17T12:25:28.694Z,3
2023-02-17T12:26:28.708Z,3
2023-02-17T12:27:28.686Z,3
2023-02-17T12:28:28.687Z,3
2023-02-17T12:29:28.713Z,3
2023-02-17T12:30:28.986Z,3
2023-02-17T12:31:28.814Z,3
2023-02-17T12:32:28.700Z,3
2023-02-17T12:33:28.711Z,3
2023-02-17T12:34:28.699Z,3
2023-02-17T12:35:28.767Z,3
2023-02-17T12:36:28.693Z,3
2023-02-17T12:37:28.707Z,3
2023-02-17T12:38:28.702Z,2
2023-02-17T12:39:28.701Z,2
2023-02-17T12:40:28.750Z,2
2023-02-17T12:41:28.696Z,3
2023-02-17T12:42:28.692Z,3
2023-02-17T12:43:29.126Z,2
2023-02-17T12:44:28.724Z,3
2023-02-17T12:45:28.761Z,2
2023-02-17T12:46:28.767Z,3
2023-02-17T12:47:28.722Z,3
2023-02-17T12:48:30.632Z,2
2023-02-17T12:49:28.690Z,2
2023-02-17T12:50:28.759Z,2
2023-02-17T12:51:28.707Z,2
2023-02-17T12:52:28.708Z,2
2023-02-17T12:53:28.700Z,2
2023-02-17T12:54:28.697Z,2
2023-02-17T12:55:28.712Z,2
2023-02-17T12:56:28.695Z,2
2023-02-17T12:57:28.719Z,3
2023-02-17T12:58:28.708Z,2
2023-02-17T12:59:28.689Z,2
2023-02-17T13:00:28.706Z,2
2023-02-17T13:01:28.713Z,2
2023-02-17T13:02:28.786Z,2
2023-02-17T13:03:28.703Z,2
2023-02-17T13:04:28.697Z,2
2023-02-17T13:05:28.707Z,2
2023-02-17T13:06:28.694Z,2
2023-02-17T13:07:28.714Z,2
2023-02-17T13:08:28.706Z,2
2023-02-17T13:09:28.735Z,2
2023-02-17T13:10:28.699Z,2
2023-02-17T13:11:28.702Z,2
2023-02-17T13:12:28.705Z,3
2023-02-17T13:13:28.719Z,3
2023-02-17T13:14:28.707Z,3
2023-02-17T13:15:28.716Z,3
2023-02-17T13:16:28.696Z,3
2023-02-17T13:17:28.812Z,3
2023-02-17T13:18:28.701Z,2
2023-02-17T13:19:28.732Z,3
2023-02-17T13:20:28.705Z,2
2023-02-17T13:21:28.836Z,2
2023-02-17T13:22:28.698Z,2
2023-02-17T13:23:28.706Z,3
2023-02-17T13:24:28.715Z,2
2023-02-17T13:25:28.701Z,3
2023-02-17T13:26:28.705Z,3
2023-02-17T13:27:28.703Z,3
2023-02-17T13:28:28.695Z,3
2023-02-17T13:29:28.708Z,2
2023-02-17T13:30:28.727Z,3
2023-02-17T13:31:28.823Z,2
2023-02-17T13:32:28.789Z,3
2023-02-17T13:33:28.700Z,3
2023-02-17T13:34:28.767Z,2
2023-02-17T13:35:28.717Z,2
2023-02-17T13:36:28.902Z,2
2023-02-17T13:37:28.772Z,3
2023-02-17T13:38:28.708Z,2
2023-02-17T13:39:28.722Z,3
2023-02-17T13:40:28.796Z,2
2023-02-17T13:41:28.841Z,2
2023-02-17T13:42:28.914Z,2
2023-02-17T13:43:28.715Z,2
2023-02-17T13:44:28.931Z,2
2023-02-17T13:45:28.704Z,2
2023-02-17T13:46:28.757Z,3
2023-02-17T13:47:28.706Z,2
2023-02-17T13:48:28.712Z,2
2023-02-17T13:49:28.758Z,2
2023-02-17T13:50:28.727Z,2
2023-02-17T13:51:28.700Z,2
2023-02-17T13:52:28.710Z,2
2023-02-17T13:53:28.755Z,2
2023-02-17T13:54:28.751Z,2
2023-02-17T13:55:28.983Z,2
2023-02-17T13:56:28.694Z,2
2023-02-17T13:58:28.757Z,2
2023-02-17T13:59:28.786Z,2
2023-02-17T14:00:28.701Z,2
2023-02-17T14:01:28.793Z,2
2023-02-17T14:02:36.207Z,2
2023-02-17T14:03:28.703Z,2
2023-02-17T14:04:30.032Z,2
2023-02-17T14:05:28.701Z,2
2023-02-17T14:06:28.695Z,2
2023-02-17T14:07:28.729Z,2
2023-02-17T14:09:28.735Z,2
2023-02-17T14:10:28.696Z,2
2023-02-17T14:11:30.409Z,2
2023-02-17T14:12:28.843Z,2
2023-02-17T14:13:28.818Z,2
2023-02-17T14:14:28.699Z,2
2023-02-17T14:15:28.827Z,2
2023-02-17T14:16:28.691Z,2
2023-02-17T14:17:29.995Z,2
2023-02-17T14:18:28.725Z,2
2023-02-17T14:19:28.698Z,2
2023-02-17T14:20:28.696Z,2
2023-02-17T14:21:28.945Z,2
2023-02-17T14:22:28.921Z,2
2023-02-17T14:23:28.694Z,2
2023-02-17T14:24:28.758Z,2
2023-02-17T14:25:28.692Z,2
2023-02-17T14:26:28.697Z,2
2023-02-17T14:27:28.725Z,2
2023-02-17T14:28:28.724Z,2
2023-02-17T14:30:28.738Z,2
2023-02-17T14:31:28.812Z,2
2023-02-17T14:32:28.712Z,3
2023-02-17T14:33:28.721Z,2
2023-02-17T14:34:28.688Z,3
2023-02-17T14:35:28.699Z,3
2023-02-17T14:36:28.748Z,3
2023-02-17T14:37:28.703Z,4
2023-02-17T14:39:28.800Z,3
2023-02-17T14:40:28.697Z,3
2023-02-17T14:41:28.696Z,4
2023-02-17T14:42:28.704Z,3
2023-02-17T14:43:28.703Z,3
2023-02-17T14:44:28.719Z,3
2023-02-17T14:45:28.692Z,4
2023-02-17T14:46:28.733Z,4
2023-02-17T14:47:29.017Z,4
2023-02-17T14:48:28.822Z,5
2023-02-17T14:49:29.015Z,4
2023-02-17T14:51:28.707Z,5
2023-02-17T14:52:28.943Z,4
2023-02-17T14:53:28.821Z,4
2023-02-17T14:54:30.380Z,5
2023-02-17T14:55:28.704Z,4
2023-02-17T14:56:28.823Z,5
2023-02-17T14:57:28.726Z,5
2023-02-17T14:58:28.721Z,5
2023-02-17T14:59:28.710Z,4
2023-02-17T15:40:28.866Z,6
2023-02-17T16:04:00.861Z,5
2023-02-17T16:23:10.288Z,5
2023-02-17T16:37:59.917Z,5
2023-02-17T17:10:50.866Z,5
2023-02-17T17:13:28.841Z,5
2023-02-17T17:14:28.698Z,5
2023-02-17T17:15:28.711Z,5